Time;durP1;ratioP1;P1;durP2;ratioP2;P2;SDS_P1;SDS_P2;PMS_P1;PMS_P2;Temp;Humidity;BMP_temperature;BMP_pressure;BME280_temperature;BME280_humidity;BME280_pressure;Samples;Min_cycle;Max_cycle;Signal;HPM_P1;HPM_P2
2022/05/26 04:06:28;;;;;;;2.35;1.77;;;;;;;17.57;59.10;100922.97;5606621;31;74620;-58
2022/05/26 04:09:30;;;;;;;3.85;1.98;;;;;;;17.57;59.10;100922.97;5584277;31;33502;-58
2022/05/26 04:12:32;;;;;;;2.50;1.60;;;;;;;17.22;59.49;100938.31;5583708;32;34244;-58
2022/05/26 04:15:35;;;;;;;2.72;1.90;;;;;;;17.20;58.55;100940.53;5584147;31;33663;-58
2022/05/26 04:18:37;;;;;;;4.07;1.77;;;;;;;17.25;57.37;100937.69;5599953;31;34137;-58
2022/05/26 04:22:15;;;;;;;4.03;1.73;;;;;;;17.24;56.25;100948.81;5603738;31;33603;-58
2022/05/26 04:25:03;;;;;;;2.47;1.62;;;;;;;17.23;56.82;100955.37;5603502;31;33653;-58
2022/05/26 04:28:05;;;;;;;1.90;1.60;;;;;;;17.26;59.81;100946.63;5603363;31;34267;-58
2022/05/26 04:31:08;;;;;;;2.47;1.70;;;;;;;17.28;56.40;100955.22;5603620;31;33112;-58
2022/05/26 04:34:10;;;;;;;3.45;1.90;;;;;;;17.33;55.99;100965.94;5603499;31;33664;-58
2022/05/26 04:37:18;;;;;;;6.37;2.55;;;;;;;17.36;56.20;100968.81;5591204;31;33598;-58
2022/05/26 04:40:20;;;;;;;3.00;1.87;;;;;;;17.51;57.63;100964.88;5583591;32;34338;-58
2022/05/26 04:43:23;;;;;;;2.90;1.90;;;;;;;17.48;59.67;100972.84;5583896;31;33590;-58
2022/05/26 04:46:25;;;;;;;6.87;2.30;;;;;;;17.59;65.50;100979.63;5583499;31;33554;-58
2022/05/26 04:49:28;;;;;;;3.95;2.55;;;;;;;17.78;61.05;100979.37;5583048;31;33119;-58
2022/05/26 04:52:30;;;;;;;3.70;2.90;;;;;;;17.73;68.05;100988.44;5575552;31;34354;-58
2022/05/26 04:55:36;;;;;;;5.00;2.45;;;;;;;17.74;61.87;100989.22;5565493;32;33682;-58
2022/05/26 04:58:38;;;;;;;4.82;2.87;;;;;;;17.82;67.80;100991.22;5583015;31;33598;-58
2022/05/26 05:01:41;;;;;;;3.92;2.62;;;;;;;17.78;64.23;100987.50;5583484;32;33590;-58
2022/05/26 05:04:46;;;;;;;6.22;2.97;;;;;;;17.85;63.62;101001.44;5582705;31;33693;-58
2022/05/26 05:07:48;;;;;;;4.70;2.40;;;;;;;18.03;62.46;100999.56;5581598;31;34239;-58
2022/05/26 05:10:51;;;;;;;3.87;2.50;;;;;;;17.95;71.85;101011.22;5577804;32;34412;-58
2022/05/26 05:13:53;;;;;;;4.00;2.60;;;;;;;18.33;65.80;101011.44;5579646;32;33731;-58
2022/05/26 05:16:55;;;;;;;5.87;2.37;;;;;;;18.33;66.34;101014.16;5559500;32;34351;-58
2022/05/26 05:19:58;;;;;;;2.45;2.22;;;;;;;18.55;68.93;101015.97;5565519;32;33656;-58
2022/05/26 05:23:04;;;;;;;9.00;2.50;;;;;;;18.92;64.58;101017.25;5555752;32;33677;-58
2022/05/26 05:26:11;;;;;;;3.83;2.10;;;;;;;19.08;66.94;101016.78;5566193;32;34280;-58
2022/05/26 05:29:15;;;;;;;4.57;2.05;;;;;;;19.11;56.45;101016.13;5569597;32;34341;-58
2022/05/26 05:32:22;;;;;;;4.90;1.95;;;;;;;19.22;58.81;101018.19;5569946;32;34366;-58
2022/05/26 05:35:37;;;;;;;4.30;2.00;;;;;;;19.25;59.06;101024.91;5568522;32;33957;-58
2022/05/26 05:38:40;;;;;;;3.00;1.98;;;;;;;19.25;57.84;101024.91;5566805;32;33573;-58
2022/05/26 05:41:43;;;;;;;3.67;2.50;;;;;;;19.35;61.66;101034.63;5556835;32;34276;-58
2022/05/26 05:44:45;;;;;;;3.85;2.00;;;;;;;19.52;61.27;101036.50;5550196;32;33204;-58
2022/05/26 05:47:47;;;;;;;3.05;1.70;;;;;;;19.64;64.08;101040.19;5550458;32;33702;-58
2022/05/26 05:50:51;;;;;;;3.25;1.55;;;;;;;19.84;58.91;101043.31;5550448;32;33853;-58
2022/05/26 05:53:53;;;;;;;3.97;1.70;;;;;;;19.97;56.08;101042.31;5550390;32;33801;-59
2022/05/26 05:56:55;;;;;;;4.25;1.65;;;;;;;20.01;56.16;101043.22;5549844;32;33729;-58
2022/05/26 05:59:57;;;;;;;3.05;1.90;;;;;;;20.03;53.43;101040.97;5565834;32;33618;-58
2022/05/26 06:03:00;;;;;;;2.72;1.20;;;;;;;20.15;57.56;101043.78;5549902;32;34419;-58
2022/05/26 06:06:04;;;;;;;2.08;1.30;;;;;;;20.28;52.56;101038.44;5559283;32;34337;-58
2022/05/26 06:09:08;;;;;;;3.78;1.37;;;;;;;20.07;53.03;101039.22;5568721;32;33680;-58
2022/05/26 06:12:10;;;;;;;2.35;1.30;;;;;;;20.08;53.85;101042.72;5568513;32;33666;-59
2022/05/26 06:15:13;;;;;;;4.75;1.35;;;;;;;20.02;52.63;101053.00;5569136;32;33610;-58
2022/05/26 06:18:16;;;;;;;2.53;1.50;;;;;;;20.13;53.44;101045.25;5569168;32;34407;-58
2022/05/26 06:21:18;;;;;;;4.93;1.50;;;;;;;20.24;53.24;101049.19;5569199;32;33721;-58
2022/05/26 06:24:25;;;;;;;2.25;1.40;;;;;;;20.38;52.36;101055.19;5568398;32;34313;-58
2022/05/26 06:30:48;;;;;;;5.40;1.75;;;;;;;20.51;50.80;101067.00;5569135;32;33718;-58
2022/05/26 06:37:14;;;;;;;2.40;1.25;;;;;;;20.61;50.40;101061.16;5569083;32;33725;-58
2022/05/26 06:40:17;;;;;;;2.97;1.50;;;;;;;20.70;50.44;101071.22;5569003;32;33590;-58
2022/05/26 06:43:20;;;;;;;1.62;1.20;;;;;;;20.82;49.90;101077.50;5568705;32;34356;-58
2022/05/26 06:46:22;;;;;;;2.08;1.45;;;;;;;20.88;48.47;101083.56;5569191;31;33447;-58
2022/05/26 06:49:25;;;;;;;3.12;1.58;;;;;;;20.90;49.39;101085.97;5569467;32;33650;-58
2022/05/26 06:52:28;;;;;;;2.90;1.55;;;;;;;20.90;49.41;101083.25;5565644;32;34423;-59
2022/05/26 06:55:30;;;;;;;2.45;1.52;;;;;;;21.03;49.51;101076.72;5568495;32;33843;-58
2022/05/26 06:58:32;;;;;;;2.97;1.50;;;;;;;21.13;51.37;101084.50;5567930;32;34285;-58
2022/05/26 07:01:35;;;;;;;2.45;1.23;;;;;;;21.25;49.93;101084.53;5568427;32;33735;-58
2022/05/26 07:04:39;;;;;;;3.55;1.40;;;;;;;21.41;50.41;101073.81;5567533;32;34290;-58
2022/05/26 07:07:42;;;;;;;5.68;1.40;;;;;;;21.46;50.42;101070.09;5568930;32;33647;-58
2022/05/26 07:10:46;;;;;;;3.70;1.67;;;;;;;21.47;47.90;101075.22;5569063;32;33648;-58
2022/05/26 07:13:49;;;;;;;2.40;1.27;;;;;;;21.58;48.76;101073.63;5568419;32;33249;-58
2022/05/26 07:16:51;;;;;;;2.12;1.30;;;;;;;21.58;50.31;101075.56;5562511;32;34278;-58
2022/05/26 07:19:54;;;;;;;2.65;1.55;;;;;;;21.61;48.62;101074.91;5555596;32;33787;-59
2022/05/26 07:22:57;;;;;;;4.15;1.40;;;;;;;21.72;48.26;101067.06;5563062;32;33601;-60
2022/05/26 07:26:08;;;;;;;4.72;1.50;;;;;;;21.80;49.45;101079.81;5559810;32;34019;-59
2022/05/26 07:29:10;;;;;;;3.30;1.37;;;;;;;21.88;50.30;101078.13;5559612;32;33733;-58
2022/05/26 07:32:12;;;;;;;3.85;1.60;;;;;;;21.98;50.66;101081.19;5558677;32;33609;-58
2022/05/26 07:35:14;;;;;;;2.62;1.55;;;;;;;22.11;52.63;101082.00;5557510;32;32431;-58
2022/05/26 07:41:39;;;;;;;4.47;1.73;;;;;;;22.20;51.00;101093.63;5567193;32;34284;-58
2022/05/26 07:44:45;;;;;;;8.07;1.77;;;;;;;22.13;47.84;101092.59;5567200;32;33708;-59
2022/05/26 07:47:47;;;;;;;;;;;;;;;22.11;48.72;101095.66;5566733;32;33751;-58
2022/05/26 07:50:49;;;;;;;1.30;1.20;;;;;;;21.90;48.72;101100.44;5564363;32;34553;-58
2022/05/26 07:53:51;;;;;;;4.68;1.55;;;;;;;21.88;51.91;101099.97;5564001;32;33617;-58
2022/05/26 07:56:56;;;;;;;2.17;1.25;;;;;;;21.93;50.51;101100.53;5565210;32;33601;-58
2022/05/26 07:59:58;;;;;;;2.90;1.48;;;;;;;21.97;50.07;101106.12;5562371;32;34272;-59
2022/05/26 08:03:01;;;;;;;2.12;1.40;;;;;;;21.97;49.75;101108.84;5563042;32;33309;-58
2022/05/26 08:06:03;;;;;;;4.43;1.55;;;;;;;21.98;50.36;101104.97;5561878;32;32394;-58
2022/05/26 08:09:07;;;;;;;4.32;1.62;;;;;;;22.09;51.76;101110.81;5562227;32;33637;-58
2022/05/26 08:12:12;;;;;;;4.35;1.60;;;;;;;22.14;52.08;101110.56;5564179;32;33596;-58
2022/05/26 08:15:14;;;;;;;1.98;1.55;;;;;;;22.23;50.94;101100.38;5563768;32;33757;-58
2022/05/26 08:18:16;;;;;;;2.55;1.30;;;;;;;22.18;49.02;101100.56;5562665;32;34572;-58
2022/05/26 08:21:20;;;;;;;3.42;1.55;;;;;;;22.12;48.22;101100.00;5564844;32;33691;-59
2022/05/26 08:24:24;;;;;;;9.70;2.17;;;;;;;22.19;51.12;101099.47;5566857;32;33846;-58
2022/05/26 08:27:26;;;;;;;3.58;1.40;;;;;;;22.27;51.41;101110.25;5565362;32;33756;-59
2022/05/26 08:30:29;;;;;;;4.18;1.30;;;;;;;22.45;50.25;101110.84;5561299;32;34352;-58
2022/05/26 08:33:31;;;;;;;6.12;1.70;;;;;;;22.44;48.14;101109.22;5563997;32;34006;-58
2022/05/26 08:36:35;;;;;;;4.55;1.35;;;;;;;22.46;50.86;101106.16;5562722;32;33600;-58
2022/05/26 08:39:37;;;;;;;3.95;1.77;;;;;;;22.38;48.27;101098.88;5565015;32;33626;-58
2022/05/26 08:42:40;;;;;;;6.93;1.42;;;;;;;22.23;48.69;101100.38;5564527;32;33593;-58
2022/05/26 08:45:50;;;;;;;2.15;1.20;;;;;;;22.17;49.17;101099.78;5556198;32;33794;-58
2022/05/26 08:49:08;;;;;;;3.70;1.40;;;;;;;22.33;49.56;101108.09;5559374;32;33725;-58
2022/05/26 08:52:10;;;;;;;1.73;1.12;;;;;;;22.47;51.23;101105.81;5565534;32;33297;-58
2022/05/26 08:55:16;;;;;;;3.25;1.35;;;;;;;22.59;45.27;101113.19;5566903;32;33691;-58
2022/05/26 08:58:25;;;;;;;3.90;1.30;;;;;;;22.56;47.76;101102.97;5565143;32;34271;-58
2022/05/26 09:01:31;;;;;;;4.87;1.35;;;;;;;22.56;45.82;101111.16;5563874;32;34033;-58
2022/05/26 09:04:34;;;;;;;3.95;1.33;;;;;;;22.60;47.47;101112.06;5563112;32;34469;-59
2022/05/26 09:14:29;;;;;;;3.60;1.10;;;;;;;22.60;44.64;101122.19;5564227;32;33756;-58
2022/05/26 09:17:31;;;;;;;9.77;1.62;;;;;;;22.68;44.36;101122.06;5565385;32;33805;-58
2022/05/26 09:20:38;;;;;;;5.47;1.12;;;;;;;22.68;43.23;101121.25;5566477;32;33668;-58
2022/05/26 09:23:44;;;;;;;7.32;1.37;;;;;;;22.62;42.52;101120.72;5566492;32;33901;-58
2022/05/26 09:26:52;;;;;;;2.15;1.00;;;;;;;22.59;44.11;101132.34;5560968;32;33659;-59
2022/05/26 09:30:12;;;;;;;4.07;1.20;;;;;;;22.71;40.37;101128.78;5560380;32;33212;-58
2022/05/26 09:33:30;;;;;;;8.32;1.50;;;;;;;22.73;42.67;101121.81;5565809;32;34375;-59
2022/05/26 09:36:43;;;;;;;2.28;1.08;;;;;;;22.88;42.00;101122.25;5557784;32;33477;-58
2022/05/26 09:39:46;;;;;;;7.10;1.40;;;;;;;22.89;38.47;101123.84;5567526;32;34501;-58
2022/05/26 09:42:56;;;;;;;3.37;1.10;;;;;;;22.87;42.40;101118.72;5560516;32;33055;-58
2022/05/26 09:46:26;;;;;;;2.72;1.30;;;;;;;22.90;41.70;101119.97;5565536;32;33771;-58
2022/05/26 09:49:37;;;;;;;3.90;1.10;;;;;;;22.91;42.13;101111.44;5566341;32;34254;-58
2022/05/26 09:52:46;;;;;;;1.65;1.10;;;;;;;22.88;41.34;101116.78;5564845;32;34435;-58
2022/05/26 09:55:50;;;;;;;1.98;1.00;;;;;;;22.79;40.89;101118.87;5568009;32;33844;-59
2022/05/26 09:58:53;;;;;;;2.53;0.90;;;;;;;22.87;43.47;101102.31;5563296;32;34238;-58
2022/05/26 10:02:15;;;;;;;2.25;0.82;;;;;;;23.01;40.17;101099.22;5568715;32;33744;-58
2022/05/26 10:05:52;;;;;;;12.48;1.65;;;;;;;23.15;37.85;101109.78;5564572;32;33630;-58
2022/05/26 10:09:10;;;;;;;5.97;1.30;;;;;;;23.20;38.77;101102.13;5552454;31;34171;-59
2022/05/26 10:12:37;;;;;;;3.15;1.10;;;;;;;23.36;38.55;101115.06;5559959;32;33870;-58
2022/05/26 10:15:57;;;;;;;11.38;1.35;;;;;;;23.44;37.58;101112.19;5566125;32;33752;-58
2022/05/26 10:19:34;;;;;;;2.67;1.17;;;;;;;23.38;37.34;101112.78;5549538;32;33848;-58
2022/05/26 10:22:44;;;;;;;5.00;1.10;;;;;;;23.33;37.13;101115.75;5560840;32;34217;-58
2022/05/26 10:25:56;;;;;;;2.42;1.10;;;;;;;23.30;37.57;101109.03;5568158;32;33764;-59
2022/05/26 10:29:22;;;;;;;3.47;1.12;;;;;;;23.30;38.74;101105.50;5561492;32;33785;-58
2022/05/26 10:32:39;;;;;;;4.57;1.40;;;;;;;23.42;39.64;101108.97;5566997;32;33756;-58
2022/05/26 10:35:48;;;;;;;3.05;1.12;;;;;;;23.58;38.77;101114.50;5567967;31;33709;-58
2022/05/26 10:39:04;;;;;;;2.83;1.30;;;;;;;23.65;38.66;101113.88;5568187;32;33725;-58
2022/05/26 10:42:23;;;;;;;5.30;1.30;;;;;;;23.72;37.00;101099.62;5562056;32;34612;-58
2022/05/26 10:45:33;;;;;;;4.78;1.20;;;;;;;23.62;39.68;101100.91;5563849;32;33765;-58
2022/05/26 10:48:59;;;;;;;4.45;1.10;;;;;;;23.63;36.21;101113.44;5561899;32;33876;-58
2022/05/26 10:52:15;;;;;;;10.05;1.40;;;;;;;23.70;36.67;101101.91;5561954;32;34235;-58
2022/05/26 10:55:23;;;;;;;1.70;0.90;;;;;;;23.78;36.65;101101.75;5563549;32;33728;-58
2022/05/26 10:58:33;;;;;;;3.37;1.20;;;;;;;23.80;37.27;101117.81;5566863;32;33606;-58
2022/05/26 11:01:42;;;;;;;3.95;1.33;;;;;;;23.79;35.89;101102.53;5564940;32;33809;-58
2022/05/26 11:05:02;;;;;;;8.73;1.27;;;;;;;23.63;36.45;101106.00;5565813;32;33918;-58
2022/05/26 11:08:31;;;;;;;1.45;1.10;;;;;;;23.56;38.27;101100.34;5564062;32;34362;-59
2022/05/26 11:11:37;;;;;;;2.85;1.20;;;;;;;23.67;39.27;101095.16;5558641;32;33645;-58
2022/05/26 11:18:18;;;;;;;2.95;1.08;;;;;;;23.70;38.40;101093.69;5565492;32;33829;-59
2022/05/26 11:21:22;;;;;;;4.62;1.20;;;;;;;23.83;39.09;101093.25;5567919;32;34446;-58
2022/05/26 11:24:25;;;;;;;2.05;1.20;;;;;;;23.86;38.36;101087.06;5562710;32;34432;-58
2022/05/26 11:27:45;;;;;;;1.85;1.15;;;;;;;23.95;38.66;101086.91;5561974;32;34373;-58
2022/05/26 11:37:52;;;;;;;2.80;1.23;;;;;;;24.21;38.53;101078.16;5562869;32;34386;-58
2022/05/26 11:41:02;;;;;;;2.78;1.52;;;;;;;24.28;36.19;101075.56;5566621;32;33234;-58
2022/05/26 11:44:07;;;;;;;1.52;1.27;;;;;;;24.30;37.86;101075.19;5563117;32;33470;-58
2022/05/26 11:47:31;;;;;;;1.37;1.20;;;;;;;24.24;39.23;101071.13;5566179;32;34052;-59
2022/05/26 11:50:46;;;;;;;2.85;1.30;;;;;;;24.27;39.74;101064.94;5560259;32;33405;-59
2022/05/26 11:53:49;;;;;;;5.32;1.17;;;;;;;24.27;37.14;101068.50;5566265;32;33724;-59
2022/05/26 11:56:51;;;;;;;2.35;1.17;;;;;;;24.26;38.43;101074.31;5563904;32;33852;-58
2022/05/26 11:59:53;;;;;;;12.23;1.65;;;;;;;24.13;37.31;101065.41;5565359;32;33666;-58
2022/05/26 12:03:22;;;;;;;1.20;1.00;;;;;;;24.06;37.49;101060.56;5557345;32;32364;-58
2022/05/26 12:06:37;;;;;;;1.15;0.90;;;;;;;24.15;39.44;101063.13;5556343;32;32131;-58
2022/05/26 12:09:48;;;;;;;2.07;1.20;;;;;;;24.21;38.35;101055.44;5561808;32;34544;-58
2022/05/26 12:13:19;;;;;;;5.72;1.20;;;;;;;24.19;38.17;101052.25;5565424;32;33865;-58
2022/05/26 12:16:26;;;;;;;2.95;1.00;;;;;;;24.02;37.64;101045.22;5560985;32;33515;-58
2022/05/26 12:19:40;;;;;;;3.92;1.05;;;;;;;23.98;36.56;101034.16;5557374;32;33726;-58
2022/05/26 12:22:52;;;;;;;2.47;0.93;;;;;;;23.98;38.58;101034.16;5547525;32;33780;-58
2022/05/26 12:26:44;;;;;;;3.08;1.17;;;;;;;23.93;36.94;101037.16;5559197;32;34388;-58
2022/05/26 12:29:46;;;;;;;4.07;1.45;;;;;;;23.79;38.25;101023.16;5561331;32;34332;-58
2022/05/26 12:32:53;;;;;;;1.90;1.08;;;;;;;23.72;37.42;101023.75;5567078;32;34420;-58
2022/05/26 12:36:20;;;;;;;2.28;1.00;;;;;;;23.85;36.53;101017.03;5568450;32;34439;-58
2022/05/26 12:39:31;;;;;;;2.65;1.23;;;;;;;23.81;37.11;101027.13;5566528;32;34381;-58
2022/05/26 12:42:51;;;;;;;2.17;1.10;;;;;;;23.75;37.41;101012.09;5568865;32;33718;-58
2022/05/26 12:46:09;;;;;;;2.15;0.90;;;;;;;23.83;37.75;101016.59;5567019;32;33832;-58
2022/05/26 12:49:26;;;;;;;1.62;0.85;;;;;;;24.09;39.00;101015.25;5568205;32;35394;-58
2022/05/26 12:52:39;;;;;;;2.55;1.12;;;;;;;24.25;37.45;101016.00;5569309;32;34558;-58
2022/05/26 12:55:52;;;;;;;2.65;0.95;;;;;;;24.41;37.28;101017.94;5570494;32;34494;-58
2022/05/26 12:58:59;;;;;;;5.03;1.02;;;;;;;24.49;36.44;101012.25;5565997;32;33693;-58
2022/05/26 13:02:02;;;;;;;5.62;1.20;;;;;;;24.56;36.47;101012.38;5569353;32;33717;-58
2022/05/26 13:05:06;;;;;;;7.15;1.20;;;;;;;24.59;36.96;101000.69;5566817;32;34317;-58
2022/05/26 13:08:18;;;;;;;5.30;1.10;;;;;;;24.66;35.37;101005.53;5566700;32;33743;-58
2022/05/26 13:11:26;;;;;;;4.12;1.00;;;;;;;24.67;35.38;101012.63;5567358;32;33683;-58
2022/05/26 13:14:33;;;;;;;3.17;1.25;;;;;;;24.60;37.26;101009.72;5566659;32;34382;-58
2022/05/26 13:17:47;;;;;;;3.20;1.20;;;;;;;24.46;35.15;101003.94;5567874;32;33537;-58
2022/05/26 13:20:49;;;;;;;2.87;1.40;;;;;;;24.36;37.04;101003.31;5567686;32;33742;-58
2022/05/26 13:23:59;;;;;;;6.18;1.15;;;;;;;24.47;37.41;101006.34;5561830;32;33580;-58
2022/05/26 13:27:08;;;;;;;7.05;1.50;;;;;;;24.53;35.76;100998.59;5559509;32;33497;-57
2022/05/26 13:33:43;;;;;;;8.45;1.37;;;;;;;24.68;35.23;100999.72;5563327;32;33678;-58
2022/05/26 13:36:47;;;;;;;8.65;1.15;;;;;;;24.65;34.84;101001.22;5565820;31;33482;-58
2022/05/26 13:40:17;;;;;;;3.17;1.08;;;;;;;24.67;35.70;100995.34;5567936;32;33612;-58
2022/05/26 13:43:20;;;;;;;5.35;1.30;;;;;;;24.59;36.82;100989.75;5562422;32;33236;-58
2022/05/26 13:46:37;;;;;;;6.28;1.40;;;;;;;24.49;38.42;100979.34;5561587;32;33868;-58
2022/05/26 13:49:55;;;;;;;7.90;1.35;;;;;;;24.41;35.89;100983.09;5563773;32;33923;-58
2022/05/26 13:52:57;;;;;;;10.40;1.60;;;;;;;24.34;36.44;100980.97;5566242;32;34249;-58
2022/05/26 13:56:06;;;;;;;8.63;1.55;;;;;;;24.25;37.95;100980.38;5564028;32;33550;-58
2022/05/26 13:59:10;;;;;;;6.65;1.20;;;;;;;24.20;37.60;100977.13;5566189;32;33919;-58
2022/05/26 14:02:27;;;;;;;5.70;1.40;;;;;;;24.18;37.66;100973.97;5566175;32;34435;-58
2022/05/26 14:06:15;;;;;;;10.25;1.40;;;;;;;24.11;37.15;100969.91;5568163;32;33654;-58
2022/05/26 14:09:28;;;;;;;5.68;1.30;;;;;;;24.02;37.29;100963.06;5550908;31;34264;-58
2022/05/26 14:12:30;;;;;;;19.37;2.50;;;;;;;24.05;37.80;100973.28;5568434;32;33612;-58
2022/05/26 14:15:47;;;;;;;9.60;1.37;;;;;;;24.00;38.38;100965.34;5568415;32;33653;-58
2022/05/26 14:19:00;;;;;;;10.15;1.50;;;;;;;24.03;39.25;100967.38;5569043;32;34475;-58
2022/05/26 14:22:04;;;;;;;5.95;1.40;;;;;;;24.10;39.76;100959.31;5567576;32;34310;-58
2022/05/26 14:25:15;;;;;;;2.10;0.98;;;;;;;24.17;40.10;100955.94;5567804;32;33581;-58
2022/05/26 14:28:29;;;;;;;8.82;1.25;;;;;;;24.34;38.67;100955.53;5569558;32;33708;-58
2022/05/26 14:31:32;;;;;;;7.30;1.05;;;;;;;24.41;36.92;100955.72;5567632;32;33826;-58
2022/05/26 14:34:45;;;;;;;7.47;1.30;;;;;;;24.47;39.02;100951.53;5569495;32;33677;-58
2022/05/26 14:37:48;;;;;;;2.17;1.20;;;;;;;24.50;37.64;100948.06;5568626;31;33752;-58
2022/05/26 14:40:52;;;;;;;1.87;1.10;;;;;;;24.43;37.59;100952.59;5564544;32;34453;-57
2022/05/26 14:44:01;;;;;;;2.45;1.00;;;;;;;24.46;37.78;100940.91;5559404;32;33721;-57
2022/05/26 14:47:03;;;;;;;3.78;1.10;;;;;;;24.50;37.99;100942.59;5555059;32;33951;-57
2022/05/26 14:50:09;;;;;;;4.22;1.42;;;;;;;24.57;37.92;100941.94;5561725;32;33678;-57
2022/05/26 14:53:13;;;;;;;1.45;0.95;;;;;;;24.65;39.34;100929.16;5565797;32;34326;-57
2022/05/26 14:56:17;;;;;;;2.95;1.37;;;;;;;24.58;38.26;100935.28;5567773;32;33726;-57
2022/05/26 14:59:19;;;;;;;5.03;1.42;;;;;;;24.52;38.69;100923.81;5566505;32;33396;-57
2022/05/26 15:02:21;;;;;;;4.95;1.10;;;;;;;24.35;38.25;100922.28;5564950;32;33793;-57
2022/05/26 15:05:23;;;;;;;2.70;1.23;;;;;;;24.26;38.73;100920.91;5568455;32;34287;-57
2022/05/26 15:08:41;;;;;;;3.58;1.12;;;;;;;24.18;38.83;100922.72;5566216;32;33588;-57
2022/05/26 15:11:43;;;;;;;2.75;1.10;;;;;;;24.20;39.39;100914.91;5564450;32;34351;-57
2022/05/26 15:14:46;;;;;;;2.87;1.20;;;;;;;24.26;39.70;100905.25;5567942;32;34289;-57
2022/05/26 15:17:48;;;;;;;3.83;1.00;;;;;;;24.19;38.83;100898.84;5569590;32;34428;-57
2022/05/26 15:20:51;;;;;;;2.17;1.10;;;;;;;24.26;39.81;100894.28;5568927;32;33652;-57
